createdAt,value
2018-10-19T00:06:32.637Z,11.50
2018-10-19T00:09:01.669Z,11.50
2018-10-19T00:11:30.222Z,11.50
2018-10-19T00:13:58.774Z,11.50
2018-10-19T00:16:27.235Z,11.50
2018-10-19T00:36:16.969Z,11.20
2018-10-19T00:38:45.422Z,11.30
2018-10-19T00:41:14.791Z,11.30
2018-10-19T00:43:43.383Z,11.30
2018-10-19T00:46:12.010Z,11.30
2018-10-19T00:48:40.602Z,11.20
2018-10-19T00:51:09.241Z,11.20
2018-10-19T00:53:37.716Z,11.10
2018-10-19T00:56:07.353Z,11.10
2018-10-19T00:58:36.031Z,11.00
2018-10-19T01:01:04.567Z,10.90
2018-10-19T01:03:33.074Z,10.90
2018-10-19T01:06:02.733Z,10.90
2018-10-19T01:08:31.974Z,10.90
2018-10-19T01:11:00.489Z,10.90
2018-10-19T01:13:30.409Z,10.90
2018-10-19T01:15:58.866Z,10.90
2018-10-19T01:35:48.950Z,10.60
2018-10-19T01:38:17.450Z,10.70
2018-10-19T01:40:45.931Z,10.70
2018-10-19T01:43:14.446Z,10.70
2018-10-19T01:45:48.217Z,10.70
2018-10-19T01:48:16.747Z,10.60
2018-10-19T01:50:45.345Z,10.60
2018-10-19T02:10:35.284Z,10.40
2018-10-19T02:13:03.949Z,10.40
2018-10-19T02:15:33.186Z,10.40
2018-10-19T02:35:21.899Z,10.00
2018-10-19T02:37:50.368Z,10.00
2018-10-19T02:57:39.602Z,10.10
2018-10-19T03:00:10.451Z,10.10
2018-10-19T03:02:39.105Z,10.00
2018-10-19T03:05:08.358Z,10.00
2018-10-19T03:07:36.976Z,10.00
2018-10-19T03:10:07.137Z,10.00
2018-10-19T03:12:35.775Z,10.10
2018-10-19T03:15:04.919Z,10.10
2018-10-19T03:34:54.985Z,9.90
2018-10-19T03:37:23.509Z,9.80
2018-10-19T03:39:52.109Z,9.80
2018-10-19T03:42:20.579Z,9.90
2018-10-19T03:44:49.133Z,9.90
2018-10-19T03:47:17.613Z,9.90
2018-10-19T03:49:46.149Z,9.80
2018-10-19T04:09:35.662Z,9.80
2018-10-19T04:12:04.606Z,9.90
2018-10-19T04:14:33.180Z,9.80
2018-10-19T04:17:01.710Z,9.80
2018-10-19T04:36:48.260Z,9.80
2018-10-19T04:39:17.207Z,9.80
2018-10-19T04:59:07.777Z,9.70
2018-10-19T05:01:36.309Z,9.60
2018-10-19T05:04:05.253Z,9.60
2018-10-19T05:06:34.027Z,9.70
2018-10-19T05:09:04.728Z,9.60
2018-10-19T05:11:33.202Z,9.60
2018-10-19T05:14:01.779Z,9.60
2018-10-19T05:16:30.331Z,9.50
2018-10-19T05:18:59.193Z,9.50
2018-10-19T05:21:28.056Z,9.50
2018-10-19T05:23:56.593Z,9.60
2018-10-19T05:26:25.814Z,9.60
2018-10-19T05:28:54.377Z,9.60
2018-10-19T05:31:24.955Z,9.60
2018-10-19T05:33:55.413Z,9.70
2018-10-19T05:36:23.888Z,9.80
2018-10-19T05:38:52.510Z,9.80
2018-10-19T05:41:21.541Z,9.80
2018-10-19T05:43:50.021Z,9.90
2018-10-19T05:46:18.608Z,9.90
2018-10-19T05:48:48.113Z,9.90
2018-10-19T05:51:16.566Z,9.90
2018-10-19T05:53:45.061Z,9.90
2018-10-19T05:56:14.825Z,9.90
2018-10-19T05:58:43.254Z,9.90
2018-10-19T06:01:11.775Z,10.00
2018-10-19T06:03:41.684Z,10.10
2018-10-19T06:06:10.821Z,10.10
2018-10-19T06:08:39.323Z,10.20
2018-10-19T06:11:07.996Z,10.20
2018-10-19T06:13:36.583Z,10.30
2018-10-19T06:16:06.097Z,10.30
2018-10-19T06:18:35.755Z,10.40
2018-10-19T06:21:04.335Z,10.40
2018-10-19T06:23:32.833Z,10.40
2018-10-19T06:26:01.834Z,10.60
2018-10-19T06:28:30.612Z,10.60
2018-10-19T06:30:59.217Z,10.70
2018-10-19T06:33:28.664Z,10.70
2018-10-19T06:35:57.124Z,10.80
2018-10-19T06:38:25.745Z,10.70
2018-10-19T06:40:54.677Z,10.80
2018-10-19T06:43:23.135Z,10.70
2018-10-19T06:45:51.560Z,10.80
2018-10-19T06:48:20.455Z,10.80
2018-10-19T06:50:48.997Z,10.80
2018-10-19T06:53:17.470Z,10.80
2018-10-19T07:13:07.372Z,11.20
2018-10-19T07:15:36.701Z,11.30
2018-10-19T07:18:05.618Z,11.30
2018-10-19T07:20:34.833Z,11.30
2018-10-19T07:23:03.349Z,11.30
2018-10-19T07:25:31.844Z,11.40
2018-10-19T07:28:01.443Z,11.40
2018-10-19T07:30:30.731Z,11.50
2018-10-19T07:32:59.312Z,11.40
2018-10-19T07:35:27.857Z,11.60
2018-10-19T07:37:56.337Z,11.60
2018-10-19T07:40:24.849Z,11.60
2018-10-19T07:42:54.710Z,11.70
2018-10-19T07:45:23.177Z,11.70
2018-10-19T07:47:52.604Z,11.70
2018-10-19T07:50:21.029Z,11.70
2018-10-19T07:52:49.526Z,11.70
2018-10-19T07:55:18.577Z,11.80
2018-10-19T07:57:47.443Z,11.70
2018-10-19T08:00:16.656Z,11.80
2018-10-19T08:02:46.609Z,11.90
2018-10-19T08:05:15.665Z,11.90
2018-10-19T08:07:44.100Z,12.00
2018-10-19T08:10:13.615Z,12.10
2018-10-19T08:12:42.481Z,12.10
2018-10-19T08:15:11.874Z,12.10
2018-10-19T08:17:41.177Z,12.20
2018-10-19T08:20:11.028Z,12.20
2018-10-19T08:40:00.297Z,12.50
2018-10-19T08:42:28.832Z,12.60
2018-10-19T08:44:57.453Z,12.60
2018-10-19T08:47:25.933Z,12.60
2018-10-19T08:49:55.166Z,12.80
2018-10-19T08:52:23.582Z,12.70
2018-10-19T08:54:52.107Z,12.80
2018-10-19T08:57:20.763Z,12.90
2018-10-19T08:59:50.829Z,12.90
2018-10-19T09:02:19.301Z,12.90
2018-10-19T09:04:47.975Z,13.00
2018-10-19T09:07:17.275Z,13.00
2018-10-19T09:09:46.773Z,13.00
2018-10-19T09:12:16.366Z,13.10
2018-10-19T09:14:55.251Z,13.10
2018-10-19T09:17:24.167Z,13.20
2018-10-19T09:19:52.988Z,13.20
2018-10-19T09:22:22.464Z,13.20
2018-10-19T09:24:51.226Z,13.20
2018-10-19T09:27:19.791Z,13.10
2018-10-19T09:29:48.936Z,13.20
2018-10-19T09:32:18.350Z,13.20
2018-10-19T09:34:47.022Z,13.20
2018-10-19T09:37:15.561Z,13.30
2018-10-19T09:39:44.144Z,13.30
2018-10-19T09:42:12.708Z,13.30
2018-10-19T09:44:41.185Z,13.30
2018-10-19T09:47:10.831Z,13.30
2018-10-19T09:49:40.016Z,13.30
2018-10-19T09:52:08.576Z,13.40
2018-10-19T09:54:37.161Z,13.40
2018-10-19T09:57:06.163Z,13.40
2018-10-19T09:59:36.465Z,13.40
2018-10-19T10:02:05.231Z,13.40
2018-10-19T10:04:34.728Z,13.40
2018-10-19T10:07:03.900Z,13.50
2018-10-19T10:09:32.478Z,13.50
2018-10-19T10:12:00.934Z,13.60
2018-10-19T10:14:30.474Z,13.70
2018-10-19T10:16:59.036Z,13.70
2018-10-19T10:19:27.535Z,13.80
2018-10-19T10:21:56.402Z,13.90
2018-10-19T10:24:25.621Z,14.00
2018-10-19T10:26:54.183Z,14.00
2018-10-19T10:29:22.825Z,13.90
2018-10-19T10:31:51.398Z,13.90
2018-10-19T10:34:19.805Z,13.90
2018-10-19T10:36:49.084Z,13.80
2018-10-19T10:39:17.709Z,13.80
2018-10-19T10:41:46.158Z,13.90
2018-10-19T10:44:14.697Z,13.80
2018-10-19T10:46:44.054Z,14.00
2018-10-19T10:49:12.659Z,13.90
2018-10-19T10:51:41.353Z,14.00
2018-10-19T10:54:10.448Z,14.00
2018-10-19T10:56:38.904Z,14.00
2018-10-19T10:59:07.385Z,14.10
2018-10-19T11:01:35.882Z,14.10
2018-10-19T11:04:04.429Z,14.10
2018-10-19T11:06:33.487Z,14.10
2018-10-19T11:09:01.967Z,14.10
2018-10-19T11:11:30.454Z,14.20
2018-10-19T11:13:58.967Z,14.20
2018-10-19T11:16:27.478Z,14.20
2018-10-19T11:18:55.919Z,14.20
2018-10-19T11:21:24.938Z,14.20
2018-10-19T11:23:54.170Z,14.20
2018-10-19T11:26:23.535Z,14.10
2018-10-19T11:28:52.066Z,14.10
2018-10-19T11:48:41.434Z,14.50
2018-10-19T11:51:12.254Z,14.50
2018-10-19T11:53:40.798Z,14.50
2018-10-19T11:56:10.016Z,14.60
2018-10-19T11:58:38.744Z,14.70
2018-10-19T12:01:07.299Z,14.80
2018-10-19T12:03:35.819Z,14.90
2018-10-19T12:06:04.461Z,14.90
2018-10-19T12:08:33.002Z,15.00
2018-10-19T12:11:02.034Z,15.00
2018-10-19T12:30:58.925Z,15.20
2018-10-19T12:33:27.659Z,15.20
2018-10-19T12:35:56.113Z,15.30
2018-10-19T12:38:25.312Z,15.30
2018-10-19T12:40:53.854Z,15.40
2018-10-19T12:43:23.048Z,15.40
2018-10-19T12:46:43.958Z,15.30
2018-10-19T13:06:34.442Z,15.50
2018-10-19T13:09:04.933Z,15.50
2018-10-19T13:11:33.430Z,15.50
2018-10-19T13:14:01.901Z,15.50
2018-10-19T13:16:31.473Z,15.40
2018-10-19T13:19:00.019Z,15.50
2018-10-19T13:38:50.624Z,15.60
2018-10-19T13:41:19.065Z,15.60
2018-10-19T13:43:48.365Z,15.70
2018-10-19T13:46:16.829Z,15.70
2018-10-19T13:48:46.711Z,15.70
2018-10-19T13:51:15.848Z,15.80
2018-10-19T13:53:44.505Z,15.80
2018-10-19T13:56:12.963Z,15.80
2018-10-19T13:58:41.535Z,15.90
2018-10-19T14:01:10.659Z,15.90
2018-10-19T14:03:39.144Z,15.90
2018-10-19T14:06:07.604Z,15.90
2018-10-19T14:25:57.762Z,16.10
2018-10-19T14:28:26.872Z,16.10
2018-10-19T14:30:56.317Z,16.20
2018-10-19T14:33:25.514Z,16.20
2018-10-19T14:35:53.862Z,16.20
2018-10-19T14:38:22.459Z,16.20
2018-10-19T14:40:51.730Z,16.20
2018-10-19T14:43:21.010Z,16.20
2018-10-19T14:45:49.591Z,16.20
2018-10-19T14:48:18.451Z,16.30
2018-10-19T14:50:47.815Z,16.30
2018-10-19T14:53:16.459Z,16.20
2018-10-19T15:13:05.938Z,16.20
2018-10-19T15:15:35.576Z,16.20
2018-10-19T15:18:04.128Z,16.20
2018-10-19T15:20:33.777Z,16.30
2018-10-19T15:23:02.490Z,16.30
2018-10-19T15:25:30.993Z,16.40
2018-10-19T15:27:59.681Z,16.30
2018-10-19T15:30:29.543Z,16.20
2018-10-19T15:32:58.005Z,16.00
2018-10-19T15:35:26.591Z,15.90
2018-10-19T15:37:55.138Z,15.90
2018-10-19T15:40:24.501Z,15.80
2018-10-19T15:42:53.660Z,15.70
2018-10-19T15:45:22.210Z,15.60
2018-10-19T16:05:14.025Z,15.10
2018-10-19T16:07:42.578Z,15.00
2018-10-19T16:10:11.133Z,14.90
2018-10-19T16:12:39.644Z,14.80
2018-10-19T16:15:09.860Z,14.70
2018-10-19T16:17:38.533Z,14.60
2018-10-19T16:20:08.818Z,14.50
2018-10-19T16:22:37.622Z,14.40
2018-10-19T16:25:06.752Z,14.30
2018-10-19T16:27:35.719Z,14.20
2018-10-19T16:30:04.475Z,14.10
2018-10-19T16:49:53.773Z,13.70
2018-10-19T16:52:22.438Z,13.60
2018-10-19T16:54:50.878Z,13.60
2018-10-19T16:57:20.215Z,13.50
2018-10-19T16:59:49.280Z,13.50
2018-10-19T17:02:17.825Z,13.40
2018-10-19T17:04:46.385Z,13.40
2018-10-19T17:07:14.923Z,13.50
2018-10-19T17:09:44.052Z,13.50
2018-10-19T17:12:13.275Z,13.40
2018-10-19T17:14:41.694Z,13.40
2018-10-19T17:17:10.193Z,13.40
2018-10-19T17:19:39.146Z,13.30
2018-10-19T17:22:07.694Z,13.30
2018-10-19T17:24:37.276Z,13.30
2018-10-19T17:27:06.519Z,13.20
2018-10-19T17:29:35.103Z,13.10
2018-10-19T17:32:04.389Z,13.10
2018-10-19T17:34:32.928Z,13.00
2018-10-19T17:37:01.477Z,12.90
2018-10-19T17:39:30.810Z,12.90
2018-10-19T17:41:59.637Z,12.80
2018-10-19T17:44:28.732Z,12.80
2018-10-19T17:46:57.334Z,12.70
2018-10-19T17:49:25.959Z,12.70
2018-10-19T17:51:54.471Z,12.60
2018-10-19T17:54:23.094Z,12.60
2018-10-19T17:56:52.263Z,12.60
2018-10-19T17:59:20.761Z,12.60
2018-10-19T18:01:49.322Z,12.50
2018-10-19T18:04:17.837Z,12.50
2018-10-19T18:06:46.511Z,12.50
2018-10-19T18:09:15.806Z,12.50
2018-10-19T18:11:44.342Z,12.50
2018-10-19T18:14:12.775Z,12.50
2018-10-19T18:16:41.291Z,12.40
2018-10-19T18:19:09.793Z,12.40
2018-10-19T18:21:39.092Z,12.40
2018-10-19T18:24:07.603Z,12.40
2018-10-19T18:26:36.640Z,12.30
2018-10-19T18:29:05.649Z,12.30
2018-10-19T18:31:34.304Z,12.30
2018-10-19T18:34:05.071Z,12.30
2018-10-19T18:36:34.805Z,12.20
2018-10-19T18:39:04.726Z,12.20
2018-10-19T18:41:33.999Z,12.20
2018-10-19T18:44:03.020Z,12.10
2018-10-19T18:46:31.465Z,12.10
2018-10-19T18:49:01.841Z,12.00
2018-10-19T18:51:30.411Z,12.00
2018-10-19T18:54:00.119Z,12.00
2018-10-19T19:13:50.820Z,11.70
2018-10-19T19:16:24.807Z,11.80
2018-10-19T19:18:53.334Z,11.80
2018-10-19T19:21:22.448Z,11.80
2018-10-19T19:23:56.287Z,11.70
2018-10-19T19:26:26.616Z,11.60
2018-10-19T19:28:55.257Z,11.60
2018-10-19T19:31:23.858Z,11.60
2018-10-19T19:33:57.535Z,11.60
2018-10-19T19:36:26.394Z,11.60
2018-10-19T19:56:15.716Z,11.60
2018-10-19T19:58:45.260Z,11.60
2018-10-19T20:01:13.925Z,11.50
2018-10-19T20:03:43.866Z,11.40
2018-10-19T20:06:12.582Z,11.40
2018-10-19T20:08:41.043Z,11.40
2018-10-19T20:11:09.691Z,11.40
2018-10-19T20:13:38.153Z,11.30
2018-10-19T20:16:06.633Z,11.40
2018-10-19T20:35:58.301Z,11.10
2018-10-19T20:38:26.832Z,11.20
2018-10-19T20:40:56.128Z,11.20
2018-10-19T20:43:24.907Z,11.10
2018-10-19T21:03:15.836Z,10.90
2018-10-19T21:05:44.626Z,10.90
2018-10-19T21:08:13.207Z,10.90
2018-10-19T21:10:41.643Z,10.80
2018-10-19T21:13:11.405Z,10.80
2018-10-19T21:33:00.927Z,11.00
2018-10-19T21:35:30.169Z,11.00
2018-10-19T21:37:58.746Z,11.00
2018-10-19T21:40:27.330Z,11.10
2018-10-19T21:42:56.506Z,11.10
2018-10-19T21:45:25.729Z,11.10
2018-10-19T21:47:54.221Z,11.10
2018-10-19T21:50:23.609Z,11.10
2018-10-19T21:52:53.046Z,11.10
2018-10-19T21:55:21.550Z,11.10
2018-10-19T21:57:50.207Z,11.10
2018-10-19T22:00:19.256Z,11.00
2018-10-19T22:02:48.800Z,11.00
2018-10-19T22:05:17.887Z,11.00
2018-10-19T22:07:46.552Z,11.10
2018-10-19T22:10:15.081Z,11.10
2018-10-19T22:12:43.786Z,11.20
2018-10-19T22:15:12.367Z,11.20
2018-10-19T22:17:40.876Z,11.20
2018-10-19T22:37:31.421Z,11.50
2018-10-19T22:40:00.107Z,11.50
2018-10-19T22:42:29.336Z,11.50
2018-10-19T22:44:58.190Z,11.60
2018-10-19T23:04:48.003Z,11.70
2018-10-19T23:07:18.235Z,11.80
2018-10-19T23:09:46.726Z,11.80
2018-10-19T23:12:15.388Z,11.80
2018-10-19T23:14:44.249Z,11.90
2018-10-19T23:17:13.676Z,11.90
2018-10-19T23:37:03.562Z,12.10
2018-10-19T23:39:31.993Z,12.10
2018-10-19T23:42:00.462Z,12.10
2018-10-19T23:44:28.986Z,12.10
2018-10-19T23:46:58.569Z,12.10
2018-10-19T23:49:27.074Z,12.10
2018-10-19T23:51:55.609Z,12.10
2018-10-19T23:54:24.122Z,12.00
2018-10-19T23:56:52.697Z,12.00
2018-10-19T23:59:21.615Z,12.00
